createdAt,value
2022-12-24T00:01:22.981Z,9.30
2022-12-24T00:03:51.230Z,9.30
2022-12-24T00:06:20.934Z,9.30
2022-12-24T00:08:48.985Z,9.30
2022-12-24T00:11:16.979Z,9.30
2022-12-24T00:13:44.897Z,9.30
2022-12-24T00:16:12.903Z,9.40
2022-12-24T00:18:46.385Z,9.40
2022-12-24T00:21:15.617Z,9.40
2022-12-24T00:23:43.822Z,9.40
2022-12-24T00:26:11.961Z,9.40
2022-12-24T00:28:39.936Z,9.30
2022-12-24T00:31:12.839Z,9.30
2022-12-24T00:33:42.301Z,9.30
2022-12-24T00:36:10.502Z,9.40
2022-12-24T00:38:40.288Z,9.40
2022-12-24T00:41:24.659Z,9.40
2022-12-24T00:43:53.831Z,9.40
2022-12-24T00:46:21.847Z,9.30
2022-12-24T00:48:51.188Z,9.30
2022-12-24T00:51:20.338Z,9.40
2022-12-24T00:53:48.449Z,9.30
2022-12-24T00:56:16.731Z,9.30
2022-12-24T00:58:44.779Z,9.30
2022-12-24T01:01:13.339Z,9.30
2022-12-24T01:03:41.493Z,9.40
2022-12-24T01:06:12.366Z,9.30
2022-12-24T01:08:40.610Z,9.30
2022-12-24T01:11:09.666Z,9.30
2022-12-24T01:13:38.538Z,9.30
2022-12-24T01:16:15.428Z,9.30
2022-12-24T01:18:43.511Z,9.30
2022-12-24T01:21:12.876Z,9.30
2022-12-24T01:23:40.825Z,9.30
2022-12-24T01:26:08.700Z,9.30
2022-12-24T01:28:36.606Z,9.20
2022-12-24T01:31:10.597Z,9.20
2022-12-24T01:33:38.552Z,9.20
2022-12-24T01:36:07.081Z,9.10
2022-12-24T01:38:36.456Z,9.10
2022-12-24T01:41:21.782Z,9.10
2022-12-24T01:43:49.734Z,9.00
2022-12-24T01:46:21.385Z,9.10
2022-12-24T01:48:54.065Z,9.00
2022-12-24T01:51:28.347Z,9.00
2022-12-24T01:54:00.732Z,9.00
2022-12-24T01:56:30.144Z,9.00
2022-12-24T01:59:03.174Z,8.90
2022-12-24T02:01:31.382Z,8.90
2022-12-24T02:03:59.950Z,8.90
2022-12-24T02:06:28.654Z,8.90
2022-12-24T02:08:58.137Z,8.90
2022-12-24T02:11:26.014Z,8.80
2022-12-24T02:13:59.548Z,8.80
2022-12-24T02:16:39.745Z,8.80
2022-12-24T02:19:24.737Z,8.80
2022-12-24T02:22:01.870Z,8.80
2022-12-24T02:25:03.522Z,8.80
2022-12-24T02:27:43.095Z,8.80
2022-12-24T02:30:16.251Z,8.70
2022-12-24T02:33:12.354Z,8.80
2022-12-24T02:35:47.585Z,8.70
2022-12-24T02:38:20.309Z,8.80
2022-12-24T02:40:51.925Z,8.80
2022-12-24T02:43:23.875Z,8.80
2022-12-24T02:45:59.477Z,8.80
2022-12-24T02:48:30.071Z,8.80
2022-12-24T02:51:05.878Z,8.70
2022-12-24T02:53:35.159Z,8.70
2022-12-24T02:56:44.507Z,8.70
2022-12-24T02:59:39.862Z,8.70
2022-12-24T03:02:19.830Z,8.60
2022-12-24T03:04:58.131Z,8.60
2022-12-24T03:07:35.913Z,8.50
2022-12-24T03:10:14.289Z,8.50
2022-12-24T03:12:45.310Z,8.50
2022-12-24T03:15:16.721Z,8.40
2022-12-24T03:17:48.824Z,8.40
2022-12-24T03:20:22.020Z,8.40
2022-12-24T03:22:50.121Z,8.30
2022-12-24T03:25:18.508Z,8.30
2022-12-24T03:27:47.039Z,8.40
2022-12-24T03:30:18.480Z,8.40
2022-12-24T03:32:48.365Z,8.40
2022-12-24T03:35:16.323Z,8.40
2022-12-24T03:37:44.210Z,8.40
2022-12-24T03:40:13.011Z,8.30
2022-12-24T03:42:41.230Z,8.30
2022-12-24T03:45:10.155Z,8.30
2022-12-24T03:47:38.165Z,8.30
2022-12-24T03:50:08.778Z,8.30
2022-12-24T03:52:36.740Z,8.40
2022-12-24T03:55:05.269Z,8.40
2022-12-24T03:57:33.176Z,8.40
2022-12-24T04:00:01.169Z,8.40
2022-12-24T04:02:29.185Z,8.50
2022-12-24T04:04:57.192Z,8.50
2022-12-24T04:07:27.151Z,8.50
2022-12-24T04:09:55.167Z,8.40
2022-12-24T04:12:23.109Z,8.50
2022-12-24T04:14:51.276Z,8.40
2022-12-24T04:17:19.179Z,8.50
2022-12-24T04:19:47.101Z,8.40
2022-12-24T04:22:15.026Z,8.40
2022-12-24T04:24:44.579Z,8.40
2022-12-24T04:27:14.264Z,8.40
2022-12-24T04:29:42.251Z,8.40
2022-12-24T04:32:11.034Z,8.40
2022-12-24T04:34:39.104Z,8.40
2022-12-24T04:37:07.385Z,8.40
2022-12-24T04:39:35.529Z,8.30
2022-12-24T04:42:04.977Z,8.30
2022-12-24T04:44:37.850Z,8.30
2022-12-24T04:47:06.030Z,8.30
2022-12-24T04:49:33.955Z,8.30
2022-12-24T04:52:01.865Z,8.30
2022-12-24T04:54:29.907Z,8.30
2022-12-24T04:56:57.788Z,8.30
2022-12-24T04:59:27.050Z,8.20
2022-12-24T05:01:55.005Z,8.20
2022-12-24T05:04:23.045Z,8.20
2022-12-24T05:06:50.968Z,8.20
2022-12-24T05:09:19.021Z,8.10
2022-12-24T05:11:46.897Z,8.10
2022-12-24T05:14:14.809Z,8.10
2022-12-24T05:16:44.901Z,8.10
2022-12-24T05:19:12.997Z,8.10
2022-12-24T05:21:41.020Z,8.10
2022-12-24T05:24:36.780Z,8.10
2022-12-24T05:27:04.799Z,8.00
2022-12-24T05:29:32.699Z,8.00
2022-12-24T05:32:01.980Z,7.90
2022-12-24T05:34:29.916Z,7.90
2022-12-24T05:37:00.094Z,7.90
2022-12-24T05:39:28.088Z,7.90
2022-12-24T05:41:56.007Z,7.80
2022-12-24T05:44:24.826Z,7.70
2022-12-24T05:46:52.816Z,7.80
2022-12-24T05:49:22.191Z,7.70
2022-12-24T05:51:50.272Z,7.60
2022-12-24T05:54:18.226Z,7.60
2022-12-24T05:56:46.119Z,7.70
2022-12-24T05:59:14.355Z,7.70
2022-12-24T06:01:45.624Z,7.70
2022-12-24T06:04:13.819Z,7.70
2022-12-24T06:06:43.110Z,7.80
2022-12-24T06:09:11.111Z,7.80
2022-12-24T06:11:39.163Z,7.80
2022-12-24T06:14:09.178Z,7.90
2022-12-24T06:16:37.196Z,7.90
2022-12-24T06:19:05.184Z,7.90
2022-12-24T06:21:33.309Z,7.90
2022-12-24T06:24:03.077Z,7.90
2022-12-24T06:26:31.073Z,8.00
2022-12-24T06:28:59.118Z,7.90
2022-12-24T06:31:27.243Z,7.90
2022-12-24T06:33:55.383Z,7.90
2022-12-24T06:36:26.211Z,7.90
2022-12-24T06:38:55.667Z,7.90
2022-12-24T06:41:25.573Z,7.90
2022-12-24T06:43:54.601Z,7.80
2022-12-24T06:46:22.964Z,7.80
2022-12-24T06:48:51.120Z,7.80
2022-12-24T06:51:20.420Z,7.80
2022-12-24T06:53:50.537Z,7.80
2022-12-24T06:56:20.265Z,7.80
2022-12-24T06:58:52.922Z,7.70
2022-12-24T07:01:21.609Z,7.70
2022-12-24T07:03:52.815Z,7.70
2022-12-24T07:06:25.650Z,7.80
2022-12-24T07:08:53.913Z,7.80
2022-12-24T07:11:22.467Z,7.80
2022-12-24T07:13:51.837Z,7.80
2022-12-24T07:16:19.960Z,7.80
2022-12-24T07:18:48.498Z,7.80
2022-12-24T07:21:16.677Z,7.80
2022-12-24T07:23:44.936Z,7.80
2022-12-24T07:26:15.373Z,7.80
2022-12-24T07:28:48.814Z,7.80
2022-12-24T07:31:18.311Z,7.70
2022-12-24T07:33:49.198Z,7.70
2022-12-24T07:36:20.533Z,7.60
2022-12-24T07:38:49.126Z,7.60
2022-12-24T07:41:17.248Z,7.60
2022-12-24T07:43:45.466Z,7.50
2022-12-24T07:46:15.570Z,7.50
2022-12-24T07:48:45.124Z,7.60
2022-12-24T07:51:13.403Z,7.60
2022-12-24T07:53:47.608Z,7.60
2022-12-24T07:56:16.204Z,7.60
2022-12-24T07:58:46.975Z,7.60
2022-12-24T08:01:15.131Z,7.60
2022-12-24T08:03:48.543Z,7.60
2022-12-24T08:06:16.888Z,7.60
2022-12-24T08:08:48.100Z,7.60
2022-12-24T08:11:30.506Z,7.70
2022-12-24T08:14:03.434Z,7.80
2022-12-24T08:16:34.072Z,7.90
2022-12-24T08:19:03.626Z,7.90
2022-12-24T08:21:31.580Z,8.00
2022-12-24T08:23:59.621Z,8.10
2022-12-24T08:26:27.659Z,8.10
2022-12-24T08:28:55.638Z,8.20
2022-12-24T08:31:24.098Z,8.30
2022-12-24T08:33:52.091Z,8.30
2022-12-24T08:36:22.155Z,8.30
2022-12-24T08:38:50.162Z,8.30
2022-12-24T08:41:18.436Z,8.40
2022-12-24T08:43:47.822Z,8.40
2022-12-24T08:46:15.748Z,8.40
2022-12-24T08:48:45.720Z,8.40
2022-12-24T08:51:14.237Z,8.40
2022-12-24T08:53:43.604Z,8.40
2022-12-24T08:56:12.832Z,8.60
2022-12-24T08:58:41.454Z,8.60
2022-12-24T09:01:14.646Z,8.70
2022-12-24T09:03:43.255Z,8.60
2022-12-24T09:06:11.782Z,8.70
2022-12-24T09:08:39.935Z,8.70
2022-12-24T09:11:11.581Z,8.70
2022-12-24T09:13:40.369Z,8.70
2022-12-24T09:16:09.673Z,8.60
2022-12-24T09:18:37.974Z,8.60
2022-12-24T09:21:08.463Z,8.60
2022-12-24T09:23:39.576Z,8.60
2022-12-24T09:26:10.164Z,8.60
2022-12-24T09:28:38.460Z,8.60
2022-12-24T09:31:07.182Z,8.60
2022-12-24T09:33:36.819Z,8.60
2022-12-24T09:36:06.494Z,8.60
2022-12-24T09:38:35.077Z,8.60
2022-12-24T09:41:11.800Z,8.60
2022-12-24T09:43:45.400Z,8.60
2022-12-24T09:46:21.683Z,8.60
2022-12-24T09:48:54.915Z,8.50
2022-12-24T09:51:28.407Z,8.60
2022-12-24T09:54:01.634Z,8.60
2022-12-24T09:56:33.769Z,8.50
2022-12-24T09:59:05.960Z,8.50
2022-12-24T10:01:35.605Z,8.60
2022-12-24T10:04:08.413Z,8.60
2022-12-24T10:06:46.403Z,8.60
2022-12-24T10:09:21.785Z,8.60
2022-12-24T10:11:55.122Z,8.60
2022-12-24T10:14:38.261Z,8.60
2022-12-24T10:17:21.904Z,8.70
2022-12-24T10:19:57.574Z,8.70
2022-12-24T10:22:31.793Z,8.70
2022-12-24T10:25:07.527Z,8.70
2022-12-24T10:27:39.798Z,8.70
2022-12-24T10:30:17.393Z,8.80
2022-12-24T10:32:46.295Z,9.00
2022-12-24T10:35:26.028Z,9.50
2022-12-24T10:37:54.128Z,9.70
2022-12-24T10:40:33.423Z,9.70
2022-12-24T10:43:01.783Z,9.60
2022-12-24T10:45:40.683Z,9.60
2022-12-24T10:48:13.857Z,9.70
2022-12-24T10:50:49.815Z,9.60
2022-12-24T10:53:22.563Z,9.60
2022-12-24T10:55:50.996Z,9.50
2022-12-24T10:58:21.323Z,9.50
2022-12-24T11:00:53.817Z,9.50
2022-12-24T11:03:24.968Z,9.50
2022-12-24T11:06:10.996Z,9.50
2022-12-24T11:08:43.121Z,9.40
2022-12-24T11:11:13.551Z,9.50
2022-12-24T11:13:45.622Z,9.50
2022-12-24T11:16:22.010Z,9.60
2022-12-24T11:18:52.397Z,9.60
2022-12-24T11:21:22.830Z,9.60
2022-12-24T11:23:53.972Z,9.60
2022-12-24T11:26:27.841Z,9.60
2022-12-24T11:29:14.385Z,9.70
2022-12-24T11:31:44.193Z,9.70
2022-12-24T11:34:28.051Z,9.70
2022-12-24T11:37:14.995Z,9.60
2022-12-24T11:39:47.047Z,9.60
2022-12-24T11:42:27.361Z,9.60
2022-12-24T11:44:57.431Z,9.50
2022-12-24T11:47:35.868Z,9.40
2022-12-24T11:50:25.783Z,9.40
2022-12-24T11:52:59.329Z,9.30
2022-12-24T11:55:41.300Z,9.20
2022-12-24T11:58:28.004Z,9.20
2022-12-24T12:01:15.717Z,9.10
2022-12-24T12:03:50.215Z,9.10
2022-12-24T12:06:46.281Z,9.20
2022-12-24T12:09:25.749Z,9.20
2022-12-24T12:12:07.238Z,9.30
2022-12-24T12:14:50.312Z,9.30
2022-12-24T12:17:32.773Z,9.40
2022-12-24T12:20:14.716Z,9.50
2022-12-24T12:22:54.756Z,9.60
2022-12-24T12:25:34.186Z,9.70
2022-12-24T12:28:14.950Z,9.80
2022-12-24T12:30:45.531Z,9.80
2022-12-24T12:33:23.683Z,10.00
2022-12-24T12:35:55.554Z,10.00
2022-12-24T12:38:26.854Z,10.00
2022-12-24T12:41:09.141Z,10.00
2022-12-24T12:43:54.652Z,10.00
2022-12-24T12:46:35.334Z,10.20
2022-12-24T12:49:16.587Z,10.20
2022-12-24T12:51:53.990Z,10.30
2022-12-24T12:54:42.218Z,10.40
2022-12-24T12:57:14.498Z,10.30
2022-12-24T12:59:49.137Z,10.20
2022-12-24T13:02:33.779Z,10.20
2022-12-24T13:05:52.176Z,10.10
2022-12-24T13:08:39.293Z,10.00
2022-12-24T13:11:27.250Z,10.00
2022-12-24T13:14:19.897Z,9.90
2022-12-24T13:17:14.928Z,9.80
2022-12-24T13:20:09.842Z,9.80
2022-12-24T13:22:38.303Z,9.80
2022-12-24T13:25:21.174Z,9.60
2022-12-24T13:27:49.298Z,9.50
2022-12-24T13:30:37.102Z,9.50
2022-12-24T13:33:05.750Z,9.40
2022-12-24T13:35:38.369Z,9.30
2022-12-24T13:38:33.581Z,9.30
2022-12-24T13:41:49.862Z,9.30
2022-12-24T13:44:33.030Z,9.30
2022-12-24T13:47:18.449Z,9.30
2022-12-24T13:49:50.158Z,9.30
2022-12-24T13:52:30.128Z,9.30
2022-12-24T13:55:09.318Z,9.30
2022-12-24T13:57:41.501Z,9.20
2022-12-24T14:00:30.653Z,9.30
2022-12-24T14:03:03.104Z,9.30
2022-12-24T14:05:35.624Z,9.30
2022-12-24T14:08:07.698Z,9.30
2022-12-24T14:10:40.587Z,9.30
2022-12-24T14:13:48.435Z,9.30
2022-12-24T14:16:18.581Z,9.30
2022-12-24T14:18:51.089Z,9.40
2022-12-24T14:21:23.501Z,9.30
2022-12-24T14:23:55.767Z,9.30
2022-12-24T14:26:26.144Z,9.30
2022-12-24T14:28:59.209Z,9.30
2022-12-24T14:31:27.292Z,9.20
2022-12-24T14:34:07.036Z,9.20
2022-12-24T14:36:36.239Z,9.20
2022-12-24T14:39:09.234Z,9.10
2022-12-24T14:41:51.178Z,9.20
2022-12-24T14:44:35.455Z,9.10
2022-12-24T14:47:16.795Z,9.10
2022-12-24T14:50:01.291Z,9.00
2022-12-24T14:53:03.982Z,9.00
2022-12-24T14:57:22.731Z,9.00
2022-12-24T14:58:44.506Z,9.00
2022-12-24T15:01:23.721Z,9.00
2022-12-24T15:04:03.073Z,8.90
2022-12-24T15:06:34.612Z,8.80
2022-12-24T15:09:03.189Z,8.80
2022-12-24T15:11:32.060Z,8.80
2022-12-24T15:14:01.645Z,8.80
2022-12-24T15:16:34.464Z,8.70
2022-12-24T15:19:06.754Z,8.70
2022-12-24T15:21:42.995Z,8.70
2022-12-24T15:24:28.096Z,8.60
2022-12-24T15:26:58.363Z,8.60
2022-12-24T15:29:40.767Z,8.50
2022-12-24T15:32:20.559Z,8.50
2022-12-24T15:35:00.493Z,8.40
2022-12-24T15:38:21.679Z,8.40
2022-12-24T15:45:35.313Z,8.30
2022-12-24T15:48:10.553Z,8.20
2022-12-24T15:50:47.359Z,8.20
2022-12-24T15:53:30.587Z,8.20
2022-12-24T15:56:15.383Z,8.20
2022-12-24T15:59:21.119Z,8.20
2022-12-24T16:06:44.554Z,8.00
2022-12-24T16:10:32.849Z,8.00
2022-12-24T16:14:20.329Z,7.90
2022-12-24T16:16:52.860Z,7.90
2022-12-24T16:19:40.633Z,7.90
2022-12-24T16:25:58.799Z,7.90
2022-12-24T16:28:40.002Z,7.90
2022-12-24T16:31:36.253Z,7.90
2022-12-24T16:34:50.302Z,7.90
2022-12-24T16:38:01.384Z,7.90
2022-12-24T16:41:12.415Z,7.90
2022-12-24T16:43:55.362Z,7.90
2022-12-24T16:46:26.152Z,7.90
2022-12-24T16:48:54.406Z,7.90
2022-12-24T16:51:22.464Z,7.90
2022-12-24T16:54:02.497Z,7.80
2022-12-24T16:56:30.633Z,7.80
2022-12-24T16:59:37.142Z,7.80
2022-12-24T17:02:46.310Z,7.80
2022-12-24T17:05:24.743Z,7.80
2022-12-24T17:08:21.868Z,7.80
2022-12-24T17:11:07.074Z,7.80
2022-12-24T17:14:35.370Z,7.70
2022-12-24T17:17:35.061Z,7.70
2022-12-24T17:20:20.344Z,7.70
2022-12-24T17:23:24.784Z,7.70
2022-12-24T17:26:25.761Z,7.70
2022-12-24T17:29:15.920Z,7.60
2022-12-24T17:32:05.460Z,7.60
2022-12-24T17:35:36.384Z,7.60
2022-12-24T17:38:55.057Z,7.60
2022-12-24T17:42:55.085Z,7.60
2022-12-24T17:58:52.258Z,7.60
2022-12-24T18:05:52.018Z,7.60
2022-12-24T18:08:20.863Z,7.50
2022-12-24T18:14:20.306Z,7.60
2022-12-24T18:16:50.029Z,7.60
2022-12-24T18:19:18.027Z,7.60
2022-12-24T18:21:47.363Z,7.60
2022-12-24T18:24:17.031Z,7.60
2022-12-24T18:26:46.455Z,7.60
2022-12-24T18:29:14.479Z,7.70
2022-12-24T18:31:42.788Z,7.70
2022-12-24T18:34:14.055Z,7.70
2022-12-24T18:36:42.433Z,7.70
2022-12-24T18:39:11.917Z,7.80
2022-12-24T18:41:39.902Z,7.80
2022-12-24T18:44:10.664Z,7.70
2022-12-24T18:46:38.588Z,7.60
2022-12-24T18:49:06.544Z,7.60
2022-12-24T18:51:36.204Z,7.50
2022-12-24T18:54:04.293Z,7.50
2022-12-24T18:56:33.607Z,7.50
2022-12-24T18:59:03.172Z,7.50
2022-12-24T19:01:32.760Z,7.50
2022-12-24T19:04:01.632Z,7.40
2022-12-24T19:06:29.910Z,7.40
2022-12-24T19:09:00.394Z,7.40
2022-12-24T19:11:32.217Z,7.30
2022-12-24T19:14:02.762Z,7.30
2022-12-24T19:16:34.038Z,7.30
2022-12-24T19:19:02.894Z,7.20
2022-12-24T19:21:31.056Z,7.10
2022-12-24T19:23:59.070Z,7.10
2022-12-24T19:26:27.263Z,7.00
2022-12-24T19:28:55.768Z,7.00
2022-12-24T19:31:27.368Z,6.90
2022-12-24T19:33:58.938Z,6.90
2022-12-24T19:36:29.490Z,6.80
2022-12-24T19:38:58.477Z,6.70
2022-12-24T19:41:27.888Z,6.60
2022-12-24T19:44:04.112Z,6.60
2022-12-24T19:46:40.438Z,6.50
2022-12-24T19:49:12.680Z,6.40
2022-12-24T19:51:40.962Z,6.40
2022-12-24T19:54:16.652Z,6.30
2022-12-24T19:56:55.186Z,6.20
2022-12-24T19:59:23.715Z,6.10
2022-12-24T20:01:54.395Z,5.90
2022-12-24T20:04:22.915Z,5.90
2022-12-24T20:06:57.829Z,5.80
2022-12-24T20:09:29.085Z,5.80
2022-12-24T20:11:57.469Z,5.70
2022-12-24T20:14:28.893Z,5.70
2022-12-24T20:17:01.020Z,5.70
2022-12-24T20:19:34.821Z,5.70
2022-12-24T20:22:06.381Z,5.70
2022-12-24T20:24:41.188Z,5.70
2022-12-24T20:27:09.520Z,5.70
2022-12-24T20:29:38.386Z,5.70
2022-12-24T20:32:08.447Z,5.70
2022-12-24T20:34:39.072Z,5.80
2022-12-24T20:37:09.706Z,5.70
2022-12-24T20:39:59.345Z,5.80
2022-12-24T20:42:30.390Z,5.80
2022-12-24T20:45:08.321Z,5.80
2022-12-24T20:47:54.863Z,5.90
2022-12-24T20:50:39.828Z,6.00
2022-12-24T20:53:08.097Z,5.90
2022-12-24T20:55:40.615Z,6.00
2022-12-24T20:58:19.021Z,6.00
2022-12-24T21:00:58.490Z,6.10
2022-12-24T21:03:27.928Z,6.10
2022-12-24T21:05:58.041Z,6.20
2022-12-24T21:08:32.117Z,6.30
2022-12-24T21:11:21.389Z,6.30
2022-12-24T21:13:49.639Z,6.40
2022-12-24T21:16:25.004Z,6.40
2022-12-24T21:18:57.472Z,6.40
2022-12-24T21:21:25.441Z,6.50
2022-12-24T21:23:56.091Z,6.50
2022-12-24T21:26:29.007Z,6.60
2022-12-24T21:29:01.562Z,6.60
2022-12-24T21:31:36.799Z,6.60
2022-12-24T21:34:33.310Z,6.70
2022-12-24T21:37:10.275Z,6.70
2022-12-24T21:39:55.458Z,6.70
2022-12-24T21:42:23.797Z,6.70
2022-12-24T21:45:37.325Z,6.80
2022-12-24T21:49:21.830Z,6.80
2022-12-24T21:52:23.157Z,6.80
2022-12-24T21:54:58.910Z,6.90
2022-12-24T21:58:07.138Z,6.90
2022-12-24T22:10:00.027Z,6.90
2022-12-24T22:16:23.202Z,6.90
2022-12-24T22:22:51.121Z,6.80
2022-12-24T22:25:46.707Z,6.80
2022-12-24T22:28:34.300Z,6.80
2022-12-24T22:31:08.628Z,6.80
2022-12-24T22:33:39.075Z,6.80
2022-12-24T22:36:17.445Z,6.80
2022-12-24T22:39:06.512Z,6.70
2022-12-24T22:41:47.832Z,6.70
2022-12-24T22:44:17.906Z,6.70
2022-12-24T22:46:46.568Z,6.70
2022-12-24T22:49:22.826Z,6.70
2022-12-24T22:51:51.284Z,6.70
2022-12-24T22:54:22.182Z,6.60
2022-12-24T22:56:52.915Z,6.60
2022-12-24T22:59:47.303Z,6.60
2022-12-24T23:02:27.521Z,6.60
2022-12-24T23:05:00.798Z,6.60
2022-12-24T23:07:39.490Z,6.60
2022-12-24T23:10:10.041Z,6.50
2022-12-24T23:12:55.617Z,6.50
2022-12-24T23:15:25.043Z,6.50
2022-12-24T23:17:53.521Z,6.50
2022-12-24T23:20:22.347Z,6.40
2022-12-24T23:22:50.593Z,6.40
2022-12-24T23:25:18.883Z,6.40
2022-12-24T23:27:50.964Z,6.40
2022-12-24T23:30:19.771Z,6.40
2022-12-24T23:32:53.355Z,6.30
2022-12-24T23:35:21.520Z,6.30
2022-12-24T23:37:51.698Z,6.20
2022-12-24T23:40:28.551Z,6.20
2022-12-24T23:42:56.806Z,6.10
2022-12-24T23:45:24.935Z,6.10
2022-12-24T23:47:54.526Z,6.00
2022-12-24T23:50:22.826Z,6.00
2022-12-24T23:52:51.120Z,6.00
2022-12-24T23:55:27.368Z,6.00
